Arctic - Eastern Arctic: Past 24 Hour Conditions

 

Qikiqtarjuaq Airport

06:00 PM EDT 19 April 2014
This table is a summary of hourly weather conditions for the past 24 hours.
Date / Time
(EDT)
Wind(knots) Conditions Visibility(km) Pressure(kPa) Air tempC) Relative humidity(%) Dew pointC) Wind Chill
19 April 2014
18:00 SSW 8 Sunny 16 101.2 -15 71 -19 -22
17:00 SSW 7 Partly Cloudy 24 101.2 -14 71 -18 -21
16:00 SSW 6 Mainly Sunny 24 101.1 -14 70 -18 -20
15:00 ESE 2 Partly Cloudy 24 101.1 -13 61 -19 -15
14:00 ENE 2 Cloudy 24 101.1 -14 64 -19 -17
13:00 N 1 Cloudy 24 101.0 -15 66 -20 -16
12:00 NNE 5 Mostly Cloudy 24 101.0 -15 69 -20 -20
11:00 ENE 3 Mostly Cloudy 24 101.0 -15 64 -20 -19
10:00 N 1 Partly Cloudy 24 100.9 -16 68 -21 -17
9:00 S 5 Partly Cloudy 24 100.9 -17 67 -21 -23
8:00 SSW 10 Mostly Cloudy 24 100.8 -17 68 -22 -26
7:00 SSW 14 Sunny 16 100.8 -17 66 -22 -29
6:00 SSW 14 Sunny 16 100.7 -18 66 -23 -30
5:00 SSW 16 N/A N/A 100.7 -17 69 -22 -29
4:00 N/A N/A N/A N/A N/A N/A N/A *
3:00 SSW 8 Clear 16 100.7 -20 80 -22 -29
2:00 E 2 Clear 16 100.7 -18 82 -21 -21
1:00 NNE 3 Clear 16 100.7 -19 74 -23 -23
0:00 ENE 9 Clear 16 100.6 -17 66 -22 -26
18 April 2014
23:00 NE 7 Clear 16 100.5 -16 66 -21 -23
22:00 SW 15 Clear 16 100.5 -17 63 -22 -28
21:00 SSW 15 Clear 16 100.4 -16 62 -22 -27
20:00 SSW 17 Sunny 16 100.4 -16 65 -22 -28
19:00 SSW 15 N/A 16 100.4 -16 65 -21 -27
18:00 SSW 10 Mainly Sunny 16 100.4 -14 62 -20 -23
 
Map of Arctic - Eastern Arctic marine weather areas Baker Lake Airport Chesterfield Inlet Airport Coral Harbour Airport Gjoa Haven Airport Kugaaruk Airport Rankin Inlet Airport Shepherd Bay Airport Whale Cove Airport Arctic Bay Brevoort Island Qikiqtarjuaq Airport Cape Dorset Airport Cape Dyer Cape Hooper Clyde Airport Grise Fiord Airport Hall Beach Airport Igloolik Airport Iqaluit Airport Longstaff Bluff Pangnirtung Airport Pond Inlet Airport Repulse Bay Airport Resolute Airport Resolution Island Rowley Island Airport Taloyoak Airport Wager Bay Akulivik Airport Ivujivik Airport Puvirnituq Airport Kangiqsujuaq Airport Kangirsuk Airport Quaqtaq Airport Tasiujaq Airport Cape Kakkiviak Cape Kiglapait Nain Airport Saglek Cape Mercy Kimmirut Airport Aupaluk Airport Salluit Airport Kangiqsualujjuaq Airport Fort Ross
Legend: buoyBuoy land stationLand Station